createdAt,value
2022-09-26T00:00:22.562Z,9.80
2022-09-26T00:05:24.261Z,9.80
2022-09-26T00:10:25.955Z,9.80
2022-09-26T00:15:27.721Z,9.70
2022-09-26T00:20:29.361Z,9.70
2022-09-26T00:25:30.997Z,9.80
2022-09-26T00:30:36.034Z,9.80
2022-09-26T00:35:38.189Z,9.80
2022-09-26T00:40:39.896Z,9.80
2022-09-26T00:45:41.747Z,9.80
2022-09-26T00:50:43.955Z,9.80
2022-09-26T00:55:58.301Z,9.70
2022-09-26T01:01:00.871Z,9.70
2022-09-26T01:06:03.024Z,9.70
2022-09-26T01:11:05.969Z,9.70
2022-09-26T01:16:07.849Z,9.70
2022-09-26T01:21:27.569Z,9.70
2022-09-26T01:27:09.344Z,9.70
2022-09-26T01:32:49.702Z,9.70
2022-09-26T01:38:00.583Z,9.70
2022-09-26T01:43:39.928Z,9.70
2022-09-26T01:48:49.614Z,9.70
2022-09-26T01:54:08.775Z,9.70
2022-09-26T01:59:22.532Z,9.80
2022-09-26T02:04:30.956Z,9.80
2022-09-26T02:09:52.175Z,9.80
2022-09-26T02:14:56.630Z,9.80
2022-09-26T02:19:59.298Z,9.90
2022-09-26T02:25:03.137Z,9.90
2022-09-26T02:30:06.987Z,9.90
2022-09-26T02:35:27.784Z,9.90
2022-09-26T02:41:00.141Z,9.90
2022-09-26T02:46:08.001Z,9.90
2022-09-26T02:51:37.971Z,9.90
2022-09-26T02:56:58.342Z,10.00
2022-09-26T03:02:14.323Z,10.00
2022-09-26T03:07:39.517Z,10.00
2022-09-26T03:12:44.576Z,10.00
2022-09-26T03:17:51.843Z,10.00
2022-09-26T03:22:53.624Z,10.00
2022-09-26T03:27:55.796Z,10.10
2022-09-26T03:32:57.545Z,10.10
2022-09-26T03:37:59.164Z,10.10
2022-09-26T03:43:00.822Z,10.10
2022-09-26T03:48:03.029Z,10.10
2022-09-26T03:53:06.586Z,10.10
2022-09-26T03:58:08.270Z,10.10
2022-09-26T04:03:10.360Z,10.00
2022-09-26T04:08:12.570Z,10.00
2022-09-26T04:13:33.669Z,10.00
2022-09-26T04:18:36.828Z,10.10
2022-09-26T04:23:40.683Z,10.10
2022-09-26T04:28:42.574Z,10.00
2022-09-26T04:33:45.081Z,10.00
2022-09-26T04:38:47.068Z,10.00
2022-09-26T04:43:49.328Z,9.90
2022-09-26T04:48:51.978Z,10.00
2022-09-26T04:53:53.817Z,9.90
2022-09-26T04:58:57.749Z,9.80
2022-09-26T05:03:59.461Z,9.90
2022-09-26T05:09:01.129Z,9.80
2022-09-26T05:14:04.044Z,9.80
2022-09-26T05:19:05.748Z,9.90
2022-09-26T05:24:27.699Z,9.80
2022-09-26T05:29:29.416Z,9.90
2022-09-26T05:34:31.232Z,9.90
2022-09-26T05:39:52.448Z,9.80
2022-09-26T05:44:54.115Z,9.80
2022-09-26T05:49:55.757Z,9.90
2022-09-26T05:54:57.420Z,9.80
2022-09-26T05:59:59.113Z,9.80
2022-09-26T06:05:00.832Z,9.90
2022-09-26T06:10:06.464Z,9.90
2022-09-26T06:15:11.091Z,10.00
2022-09-26T06:20:13.118Z,10.00
2022-09-26T06:25:15.084Z,10.10
2022-09-26T06:30:19.408Z,10.10
2022-09-26T06:35:21.851Z,10.10
2022-09-26T06:40:23.624Z,10.20
2022-09-26T06:45:26.485Z,10.20
2022-09-26T06:50:28.150Z,10.30
2022-09-26T06:55:29.962Z,10.30
2022-09-26T07:00:33.560Z,10.30
2022-09-26T07:05:35.331Z,10.40
2022-09-26T07:10:37.553Z,10.40
2022-09-26T07:15:40.031Z,10.40
2022-09-26T07:20:45.181Z,10.50
2022-09-26T07:25:47.704Z,10.60
2022-09-26T07:30:49.676Z,10.70
2022-09-26T07:35:52.076Z,10.80
2022-09-26T07:40:54.407Z,11.00
2022-09-26T07:46:14.911Z,11.20
2022-09-26T07:51:16.607Z,11.40
2022-09-26T07:56:18.440Z,11.50
2022-09-26T08:01:20.650Z,11.50
2022-09-26T08:06:23.845Z,11.70
2022-09-26T08:11:25.821Z,11.80
2022-09-26T08:16:28.623Z,11.90
2022-09-26T08:21:30.745Z,12.00
2022-09-26T08:26:32.485Z,12.20
2022-09-26T08:31:34.986Z,12.20
2022-09-26T08:36:37.048Z,12.30
2022-09-26T08:41:48.310Z,12.30
2022-09-26T08:47:02.793Z,12.50
2022-09-26T08:52:06.165Z,12.50
2022-09-26T08:57:28.235Z,12.40
2022-09-26T09:02:41.241Z,12.40
2022-09-26T09:07:45.616Z,12.40
2022-09-26T09:13:11.193Z,12.40
2022-09-26T09:18:27.716Z,12.30
2022-09-26T09:23:41.693Z,12.30
2022-09-26T09:29:02.432Z,12.20
2022-09-26T09:34:09.342Z,12.20
2022-09-26T09:39:19.425Z,12.20
2022-09-26T09:44:44.339Z,12.20
2022-09-26T09:49:49.152Z,12.10
2022-09-26T09:55:31.071Z,12.10
2022-09-26T10:00:37.829Z,12.10
2022-09-26T10:05:41.613Z,12.10
2022-09-26T10:11:02.196Z,12.10
2022-09-26T10:16:08.545Z,12.00
2022-09-26T10:21:17.842Z,12.00
2022-09-26T10:26:37.104Z,12.00
2022-09-26T10:31:43.071Z,12.10
2022-09-26T10:36:45.048Z,12.00
2022-09-26T10:41:47.600Z,12.00
2022-09-26T10:46:52.150Z,12.00
2022-09-26T10:52:08.252Z,12.00
2022-09-26T10:57:21.064Z,12.10
2022-09-26T11:02:25.320Z,12.10
2022-09-26T11:07:31.904Z,12.10
2022-09-26T11:12:39.534Z,12.10
2022-09-26T11:17:49.635Z,12.10
2022-09-26T11:23:22.414Z,12.10
2022-09-26T11:28:36.128Z,12.10
2022-09-26T11:33:45.715Z,12.20
2022-09-26T11:38:55.457Z,12.20
2022-09-26T11:44:20.444Z,12.30
2022-09-26T11:49:31.117Z,12.30
2022-09-26T11:54:45.528Z,12.40
2022-09-26T12:00:02.093Z,12.40
2022-09-26T12:05:41.273Z,12.50
2022-09-26T12:11:15.383Z,12.50
2022-09-26T12:16:52.199Z,12.60
2022-09-26T12:22:31.635Z,12.70
2022-09-26T12:28:00.813Z,12.70
2022-09-26T12:33:36.604Z,12.70
2022-09-26T12:38:54.349Z,12.80
2022-09-26T12:44:23.181Z,12.90
2022-09-26T12:50:12.085Z,12.90
2022-09-26T12:55:56.387Z,13.10
2022-09-26T13:01:23.674Z,13.20
2022-09-26T13:07:02.335Z,13.20
2022-09-26T13:12:47.761Z,13.30
2022-09-26T13:18:02.829Z,13.30
2022-09-26T13:23:20.118Z,13.40
2022-09-26T13:28:47.528Z,13.50
2022-09-26T13:34:04.559Z,13.50
2022-09-26T13:39:39.923Z,13.40
2022-09-26T13:45:26.457Z,13.40
2022-09-26T13:50:46.553Z,13.40
2022-09-26T13:56:47.524Z,13.10
2022-09-26T14:02:29.974Z,13.10
2022-09-26T14:07:56.010Z,12.80
2022-09-26T14:13:03.201Z,12.70
2022-09-26T14:18:32.964Z,12.60
2022-09-26T14:23:38.361Z,12.50
2022-09-26T14:28:49.952Z,12.40
2022-09-26T14:34:23.227Z,12.40
2022-09-26T14:39:34.261Z,12.40
2022-09-26T14:44:37.477Z,12.40
2022-09-26T14:49:39.638Z,12.30
2022-09-26T14:54:41.505Z,12.30
2022-09-26T14:59:43.634Z,12.20
2022-09-26T15:04:50.881Z,12.20
2022-09-26T15:09:57.626Z,12.10
2022-09-26T15:15:08.250Z,12.00
2022-09-26T15:20:15.903Z,11.90
2022-09-26T15:25:30.292Z,11.90
2022-09-26T15:30:37.474Z,11.90
2022-09-26T15:35:39.362Z,11.90
2022-09-26T15:40:41.049Z,11.90
2022-09-26T15:45:46.112Z,11.90
2022-09-26T15:51:21.687Z,12.00
2022-09-26T15:56:40.333Z,11.90
2022-09-26T16:01:44.156Z,11.80
2022-09-26T16:07:13.126Z,11.80
2022-09-26T16:12:20.763Z,11.70
2022-09-26T16:17:32.236Z,11.70
2022-09-26T16:22:51.105Z,11.60
2022-09-26T16:28:00.143Z,11.60
2022-09-26T16:33:08.004Z,11.50
2022-09-26T16:38:29.964Z,11.50
2022-09-26T16:43:32.901Z,11.40
2022-09-26T16:48:52.067Z,11.40
2022-09-26T16:54:08.243Z,11.40
2022-09-26T16:59:23.225Z,11.40
2022-09-26T17:04:30.870Z,11.30
2022-09-26T17:09:34.047Z,11.20
2022-09-26T17:14:40.673Z,11.20
2022-09-26T17:19:48.048Z,11.20
2022-09-26T17:24:51.714Z,11.20
2022-09-26T17:29:58.154Z,11.10
2022-09-26T17:35:03.745Z,11.10
2022-09-26T17:40:19.380Z,11.00
2022-09-26T17:45:24.729Z,11.00
2022-09-26T17:50:30.058Z,11.10
2022-09-26T17:55:33.431Z,11.00
2022-09-26T18:00:40.964Z,11.10
2022-09-26T18:05:44.593Z,11.00
2022-09-26T18:10:54.059Z,11.00
2022-09-26T18:15:58.052Z,11.00
2022-09-26T18:21:04.019Z,11.00
2022-09-26T18:26:08.780Z,11.00
2022-09-26T18:31:11.341Z,11.00
2022-09-26T18:36:13.484Z,11.00
2022-09-26T18:41:18.598Z,10.90
2022-09-26T18:46:22.799Z,11.00
2022-09-26T18:51:27.962Z,11.00
2022-09-26T18:56:48.353Z,11.00
2022-09-26T19:01:51.986Z,11.00
2022-09-26T19:07:00.903Z,11.10
2022-09-26T19:12:03.841Z,11.00
2022-09-26T19:17:05.606Z,11.00
2022-09-26T19:22:16.247Z,11.00
2022-09-26T19:27:28.098Z,11.00
2022-09-26T19:32:37.626Z,11.00
2022-09-26T19:37:39.401Z,11.00
2022-09-26T19:42:42.260Z,11.00
2022-09-26T19:47:47.351Z,11.00
2022-09-26T19:52:51.416Z,11.10
2022-09-26T19:57:54.618Z,11.00
2022-09-26T20:02:56.855Z,11.00
2022-09-26T20:07:58.624Z,11.10
2022-09-26T20:13:00.345Z,11.10
2022-09-26T20:18:02.477Z,11.10
2022-09-26T20:23:04.764Z,11.10
2022-09-26T20:28:06.468Z,11.10
2022-09-26T20:33:09.874Z,11.10
2022-09-26T20:38:30.469Z,11.10
2022-09-26T20:43:36.993Z,11.10
2022-09-26T20:48:41.618Z,11.20
2022-09-26T20:53:43.334Z,11.20
2022-09-26T20:58:45.257Z,11.20
2022-09-26T21:03:52.849Z,11.20
2022-09-26T21:08:54.588Z,11.20
2022-09-26T21:13:56.346Z,11.20
2022-09-26T21:18:58.142Z,11.20
2022-09-26T21:24:00.237Z,11.20
2022-09-26T21:29:02.080Z,11.20
2022-09-26T21:34:22.092Z,11.20
2022-09-26T21:39:25.152Z,11.20
2022-09-26T21:44:26.788Z,11.20
2022-09-26T21:49:28.518Z,11.20
2022-09-26T21:54:36.550Z,11.20
2022-09-26T21:59:39.970Z,11.20
2022-09-26T22:04:41.639Z,11.10
2022-09-26T22:09:43.316Z,11.20
2022-09-26T22:14:44.986Z,11.10
2022-09-26T22:19:46.888Z,11.10
2022-09-26T22:24:48.726Z,11.00
2022-09-26T22:29:50.389Z,11.10
2022-09-26T22:34:52.156Z,11.00
2022-09-26T22:39:54.062Z,11.00
2022-09-26T22:44:55.733Z,11.00
2022-09-26T22:49:57.408Z,10.90
2022-09-26T22:54:59.111Z,10.90
2022-09-26T23:00:01.837Z,10.90
2022-09-26T23:05:03.972Z,10.90
2022-09-26T23:10:05.987Z,10.90
2022-09-26T23:15:08.604Z,10.90
2022-09-26T23:20:10.369Z,10.90
2022-09-26T23:25:12.898Z,10.90
2022-09-26T23:30:14.718Z,10.90
2022-09-26T23:35:16.844Z,10.90
2022-09-26T23:40:18.548Z,10.80
2022-09-26T23:45:20.311Z,10.80
2022-09-26T23:50:22.118Z,10.80
2022-09-26T23:55:23.939Z,10.80
